Time;durP1;ratioP1;P1;durP2;ratioP2;P2;SDS_P1;SDS_P2;PMS_P1;PMS_P2;Temp;Humidity;BMP_temperature;BMP_pressure;BME280_temperature;BME280_humidity;BME280_pressure;Samples;Min_cycle;Max_cycle;Signal;HPM_P1;HPM_P2
2024/02/28 00:01:20;;;;;;;13.02;6.32;;;2.10;91.80;;;;;;4955764;28;20109;-68
2024/02/28 00:03:46;;;;;;;15.13;7.03;;;2.00;91.70;;;;;;4956962;28;20165;-68
2024/02/28 00:06:12;;;;;;;13.20;6.68;;;1.90;90.90;;;;;;4955967;28;20133;-68
2024/02/28 00:08:37;;;;;;;13.85;6.97;;;2.00;91.10;;;;;;4956853;28;20034;-68
2024/02/28 00:11:03;;;;;;;12.93;6.63;;;2.00;91.00;;;;;;4949373;28;20046;-68
2024/02/28 00:13:28;;;;;;;14.52;6.40;;;1.90;91.00;;;;;;4954167;28;20050;-68
2024/02/28 00:15:54;;;;;;;11.68;6.47;;;1.90;91.00;;;;;;4957174;28;20028;-68
2024/02/28 00:18:19;;;;;;;12.95;6.22;;;1.90;91.10;;;;;;4952474;28;20031;-68
2024/02/28 00:20:45;;;;;;;13.27;6.32;;;1.90;91.40;;;;;;4954659;28;20114;-68
2024/02/28 00:23:10;;;;;;;14.52;6.22;;;1.90;91.40;;;;;;4959166;28;20108;-68
2024/02/28 00:25:36;;;;;;;13.77;6.38;;;1.90;91.60;;;;;;4953667;28;20027;-68
2024/02/28 00:28:02;;;;;;;14.73;7.35;;;1.90;91.60;;;;;;4956257;28;20108;-68
2024/02/28 00:30:28;;;;;;;14.85;7.47;;;1.90;91.60;;;;;;4949289;28;20110;-68
2024/02/28 00:32:54;;;;;;;13.68;6.70;;;1.80;91.80;;;;;;4952786;28;20493;-68
2024/02/28 00:35:19;;;;;;;14.77;7.00;;;1.70;91.90;;;;;;4956012;28;20495;-68
2024/02/28 00:37:45;;;;;;;16.58;7.53;;;1.60;91.80;;;;;;4956788;28;20125;-68
2024/02/28 00:40:11;;;;;;;14.07;7.22;;;1.50;92.10;;;;;;4952988;28;20041;-68
2024/02/28 00:42:36;;;;;;;11.70;5.82;;;1.40;92.40;;;;;;4950547;28;20049;-68
2024/02/28 00:45:02;;;;;;;12.05;5.60;;;1.40;92.50;;;;;;4952804;28;20473;-68
2024/02/28 00:47:28;;;;;;;12.50;6.13;;;1.40;92.50;;;;;;4951574;28;20039;-68
2024/02/28 00:49:53;;;;;;;16.25;7.10;;;1.50;92.60;;;;;;4948963;28;20035;-68
2024/02/28 00:52:19;;;;;;;15.63;6.75;;;1.50;92.60;;;;;;4947489;28;20486;-67
2024/02/28 00:54:44;;;;;;;14.35;6.13;;;1.50;92.70;;;;;;4952775;28;20038;-68
2024/02/28 00:57:10;;;;;;;15.75;6.85;;;1.60;92.60;;;;;;4948772;28;20378;-68
2024/02/28 00:59:35;;;;;;;14.80;7.35;;;1.60;92.80;;;;;;4951259;28;20034;-68
2024/02/28 01:02:01;;;;;;;13.70;6.57;;;1.60;92.80;;;;;;4950143;28;20463;-68
2024/02/28 01:04:26;;;;;;;16.33;7.07;;;1.60;92.80;;;;;;4956620;28;20042;-68
2024/02/28 01:06:52;;;;;;;13.38;6.43;;;1.70;92.70;;;;;;4955029;28;20122;-68
2024/02/28 01:09:17;;;;;;;14.43;6.68;;;1.70;92.60;;;;;;4958003;28;20411;-68
2024/02/28 01:11:43;;;;;;;15.00;6.95;;;1.70;92.80;;;;;;4947346;28;20031;-68
2024/02/28 01:14:08;;;;;;;12.77;6.25;;;1.70;92.50;;;;;;4948571;28;20063;-68
2024/02/28 01:16:34;;;;;;;15.48;7.10;;;1.70;92.40;;;;;;4949399;28;20130;-68
2024/02/28 01:18:59;;;;;;;14.98;6.53;;;1.70;92.50;;;;;;4964544;28;20064;-68
2024/02/28 01:21:25;;;;;;;15.52;7.20;;;1.70;92.60;;;;;;4950711;28;20440;-68
2024/02/28 01:23:51;;;;;;;14.30;7.38;;;1.70;92.50;;;;;;4966611;28;20130;-68
2024/02/28 01:26:20;;;;;;;13.57;6.47;;;1.70;92.50;;;;;;4955026;28;20461;-68
2024/02/28 01:28:45;;;;;;;15.50;7.20;;;1.70;92.50;;;;;;4958698;28;20098;-68
2024/02/28 01:31:10;;;;;;;11.57;5.65;;;1.70;92.50;;;;;;4953034;28;20497;-68
2024/02/28 01:33:36;;;;;;;15.05;7.10;;;1.60;92.60;;;;;;4958330;28;20046;-68
2024/02/28 01:36:01;;;;;;;15.30;6.43;;;1.60;92.60;;;;;;4959052;28;20049;-67
2024/02/28 01:38:27;;;;;;;14.85;7.18;;;1.50;92.60;;;;;;4958416;28;20157;-68
2024/02/28 01:40:52;;;;;;;13.45;6.80;;;1.60;92.80;;;;;;4952143;28;20455;-68
2024/02/28 01:43:18;;;;;;;14.27;6.03;;;1.50;92.80;;;;;;4955959;28;20073;-68
2024/02/28 01:45:44;;;;;;;17.23;6.50;;;1.50;92.80;;;;;;4950225;28;20474;-68
2024/02/28 01:48:11;;;;;;;13.80;6.72;;;1.50;92.70;;;;;;4953407;28;20051;-69
2024/02/28 01:50:37;;;;;;;15.38;6.07;;;1.50;92.60;;;;;;4955959;28;20114;-68
2024/02/28 01:53:05;;;;;;;14.38;6.70;;;1.50;92.70;;;;;;4956666;28;20470;-68
2024/02/28 01:55:31;;;;;;;14.10;7.18;;;1.50;92.90;;;;;;4956804;28;20073;-68
2024/02/28 01:57:57;;;;;;;14.80;7.10;;;1.50;92.90;;;;;;4960154;28;20563;-68
2024/02/28 02:00:24;;;;;;;17.83;7.40;;;1.50;93.00;;;;;;4955229;28;20050;-68
2024/02/28 02:06:11;;;;;;;12.75;6.03;;;1.50;93.30;;;;;;4954680;28;20126;-68
2024/02/28 02:08:38;;;;;;;15.70;7.20;;;1.60;93.30;;;;;;4948548;28;20138;-68
2024/02/28 02:14:25;;;;;;;14.77;6.40;;;1.60;93.20;;;;;;4952038;28;20038;-68
2024/02/28 02:16:50;;;;;;;13.70;6.35;;;1.60;93.20;;;;;;4959705;28;20057;-68
2024/02/28 02:19:16;;;;;;;13.50;6.45;;;1.60;93.10;;;;;;4955139;28;20080;-68
2024/02/28 02:21:51;;;;;;;12.65;6.55;;;1.60;93.20;;;;;;4950448;28;20101;-67
2024/02/28 02:24:16;;;;;;;14.10;6.55;;;1.50;93.20;;;;;;4962285;28;20047;-68
2024/02/28 02:26:44;;;;;;;14.63;7.15;;;1.50;93.30;;;;;;4954072;28;20088;-68
2024/02/28 02:29:10;;;;;;;13.88;6.45;;;1.60;93.30;;;;;;4957034;28;20035;-68
2024/02/28 02:31:35;;;;;;;14.95;6.40;;;1.50;93.20;;;;;;4950272;28;20385;-68
2024/02/28 02:34:01;;;;;;;16.23;6.60;;;1.60;93.20;;;;;;4953997;28;20038;-67
2024/02/28 02:36:26;;;;;;;14.25;6.10;;;1.60;93.10;;;;;;4946822;28;20116;-68
2024/02/28 02:38:52;;;;;;;15.55;6.20;;;1.60;93.30;;;;;;4946828;28;20028;-68
2024/02/28 02:41:18;;;;;;;13.05;6.40;;;1.60;93.30;;;;;;4950723;28;20085;-69
2024/02/28 02:43:43;;;;;;;15.43;6.32;;;1.50;93.20;;;;;;4949439;28;20035;-68
2024/02/28 02:46:09;;;;;;;14.23;6.95;;;1.60;93.30;;;;;;4952861;28;20093;-68
2024/02/28 02:48:34;;;;;;;11.60;6.05;;;1.60;93.30;;;;;;4959259;28;20177;-68
2024/02/28 02:51:00;;;;;;;12.25;5.88;;;1.60;93.20;;;;;;4950197;28;20033;-68
2024/02/28 02:53:25;;;;;;;11.82;5.82;;;1.60;93.30;;;;;;4963974;28;20053;-68
2024/02/28 02:55:51;;;;;;;13.63;6.32;;;1.60;93.30;;;;;;4948348;28;20027;-68
2024/02/28 02:58:16;;;;;;;13.52;6.45;;;1.60;93.50;;;;;;4959401;28;20046;-68
2024/02/28 03:00:41;;;;;;;14.00;5.55;;;1.60;93.50;;;;;;4948378;28;20090;-68
2024/02/28 03:03:07;;;;;;;11.35;5.47;;;1.60;93.30;;;;;;4956768;28;20059;-68
2024/02/28 04:40:58;;;;;;;11.27;5.70;;;1.70;93.70;;;;;;4924514;28;20529;-69
2024/02/28 04:43:24;;;;;;;10.70;5.03;;;1.80;93.90;;;;;;4949512;28;20243;-68
2024/02/28 04:45:49;;;;;;;10.80;5.35;;;1.80;94.10;;;;;;4946718;28;20115;-68
2024/02/28 04:48:15;;;;;;;11.48;5.07;;;1.70;93.90;;;;;;4952654;28;20065;-68
2024/02/28 04:50:40;;;;;;;10.93;4.90;;;1.70;93.90;;;;;;4945821;28;20039;-68
2024/02/28 04:53:06;;;;;;;11.88;5.28;;;1.70;93.90;;;;;;4954313;28;20043;-68
2024/02/28 04:55:31;;;;;;;8.45;3.97;;;1.70;93.90;;;;;;4949309;28;20102;-68
2024/02/28 04:57:57;;;;;;;10.52;4.80;;;1.60;93.90;;;;;;4950487;28;20047;-68
2024/02/28 05:00:22;;;;;;;11.93;5.32;;;1.60;94.00;;;;;;4957287;28;20393;-68
2024/02/28 05:02:48;;;;;;;11.65;5.13;;;1.60;94.10;;;;;;4960468;28;20039;-68
2024/02/28 05:05:13;;;;;;;10.85;5.57;;;1.60;94.20;;;;;;4955598;28;20039;-68
2024/02/28 05:07:39;;;;;;;10.77;4.93;;;1.60;94.30;;;;;;4959136;28;20067;-68
2024/02/28 05:10:05;;;;;;;12.55;5.47;;;1.50;94.40;;;;;;4959236;28;20406;-68
2024/02/28 05:12:31;;;;;;;11.85;4.85;;;1.60;94.40;;;;;;4955288;28;20477;-68
2024/02/28 05:14:56;;;;;;;10.30;5.00;;;1.50;94.50;;;;;;4954059;28;20127;-68
2024/02/28 05:17:22;;;;;;;10.38;5.05;;;1.50;94.60;;;;;;4958088;28;20043;-69
2024/02/28 05:19:47;;;;;;;11.00;5.60;;;1.50;94.60;;;;;;4957424;28;20432;-66
2024/02/28 05:22:13;;;;;;;11.95;5.47;;;1.50;94.60;;;;;;4954580;28;20467;-68
2024/02/28 05:24:39;;;;;;;10.85;6.18;;;1.40;94.70;;;;;;4962631;28;20036;-68
2024/02/28 05:27:04;;;;;;;11.60;5.60;;;1.50;94.70;;;;;;4956339;28;20042;-68
2024/02/28 05:29:30;;;;;;;9.02;4.85;;;1.40;94.80;;;;;;4955922;28;20466;-65
2024/02/28 05:31:55;;;;;;;10.85;5.10;;;1.40;94.90;;;;;;4955383;28;20034;-66
2024/02/28 05:34:21;;;;;;;9.27;4.57;;;1.40;94.90;;;;;;4959142;28;20023;-67
2024/02/28 05:36:46;;;;;;;10.13;4.55;;;1.40;95.00;;;;;;4953996;28;20027;-65
2024/02/28 05:39:11;;;;;;;10.95;5.20;;;1.40;95.10;;;;;;4957629;28;20151;-64
2024/02/28 05:41:37;;;;;;;11.07;4.47;;;1.40;95.10;;;;;;4954718;28;20162;-66
2024/02/28 05:44:02;;;;;;;10.70;5.03;;;1.40;95.10;;;;;;4955774;28;20365;-65
2024/02/28 05:46:28;;;;;;;9.50;4.47;;;1.30;95.10;;;;;;4955197;28;20043;-67
2024/02/28 05:48:53;;;;;;;9.00;4.30;;;1.30;95.10;;;;;;4962232;28;20415;-67
2024/02/28 05:51:19;;;;;;;12.27;5.22;;;1.20;95.20;;;;;;4956207;28;20031;-67
2024/02/28 05:53:45;;;;;;;12.15;5.75;;;1.20;95.30;;;;;;4956584;28;20035;-64
2024/02/28 05:56:13;;;;;;;10.18;4.95;;;1.20;95.40;;;;;;4956101;28;20489;-64
2024/02/28 05:58:43;;;;;;;12.45;5.47;;;1.20;95.60;;;;;;4953424;28;20031;-64
2024/02/28 06:01:10;;;;;;;10.20;4.72;;;1.20;95.70;;;;;;4952471;28;20145;-65
2024/02/28 06:03:36;;;;;;;10.95;5.50;;;1.20;95.70;;;;;;4953871;28;20039;-64
2024/02/28 06:06:04;;;;;;;11.63;5.05;;;1.30;95.70;;;;;;4953385;28;20031;-66
2024/02/28 06:08:32;;;;;;;12.07;5.68;;;1.30;95.70;;;;;;4952948;28;20032;-64
2024/02/28 06:10:57;;;;;;;10.15;5.28;;;1.40;95.70;;;;;;4953847;28;20502;-65
2024/02/28 06:13:23;;;;;;;11.95;5.43;;;1.40;95.70;;;;;;4945710;28;20165;-64
2024/02/28 06:15:48;;;;;;;11.60;5.50;;;1.40;95.60;;;;;;4946708;28;20200;-65
2024/02/28 06:18:14;;;;;;;10.57;4.88;;;1.50;95.60;;;;;;4958081;28;20058;-64
2024/02/28 06:20:39;;;;;;;10.98;5.32;;;1.50;95.50;;;;;;4954209;28;20060;-65
2024/02/28 06:23:05;;;;;;;10.73;5.18;;;1.50;95.50;;;;;;4967085;28;20043;-64
2024/02/28 06:25:33;;;;;;;12.68;5.47;;;1.50;95.40;;;;;;4966455;28;20083;-64
2024/02/28 06:27:59;;;;;;;10.95;5.53;;;1.50;95.50;;;;;;4947404;28;20032;-64
2024/02/28 06:30:25;;;;;;;14.30;7.05;;;1.40;95.60;;;;;;4946188;28;20035;-66
2024/02/28 06:32:50;;;;;;;12.45;6.18;;;1.40;95.60;;;;;;4954428;28;20073;-67
2024/02/28 06:35:17;;;;;;;10.93;5.80;;;1.30;95.80;;;;;;4949563;28;20039;-68
2024/02/28 06:37:48;;;;;;;10.20;5.30;;;1.30;95.90;;;;;;4952670;28;20080;-67
2024/02/28 06:40:13;;;;;;;14.27;6.43;;;1.20;96.00;;;;;;4950095;28;20106;-67
2024/02/28 06:42:39;;;;;;;10.63;5.53;;;1.30;96.20;;;;;;4955492;28;20129;-66
2024/02/28 06:45:05;;;;;;;10.25;4.88;;;1.30;96.30;;;;;;4948474;28;20503;-67
2024/02/28 06:47:32;;;;;;;11.75;6.22;;;1.40;96.30;;;;;;4955999;28;20065;-67
2024/02/28 06:49:58;;;;;;;13.00;5.95;;;1.30;96.30;;;;;;4952085;28;20382;-67
2024/02/28 06:52:23;;;;;;;14.60;6.72;;;1.40;96.30;;;;;;4952245;28;20084;-67
2024/02/28 06:54:48;;;;;;;13.70;6.65;;;1.40;96.30;;;;;;4945611;28;20057;-67
2024/02/28 06:57:14;;;;;;;12.43;5.32;;;1.50;96.30;;;;;;4945454;28;20023;-67
2024/02/28 06:59:39;;;;;;;15.48;6.53;;;1.50;96.30;;;;;;4949013;28;20213;-66
2024/02/28 07:02:05;;;;;;;14.77;6.53;;;1.60;96.30;;;;;;4953519;28;20054;-67
2024/02/28 07:04:31;;;;;;;15.50;6.72;;;1.60;96.20;;;;;;4956243;28;20101;-68
2024/02/28 07:06:56;;;;;;;15.75;7.72;;;1.70;96.10;;;;;;4945494;28;20035;-66
2024/02/28 07:09:25;;;;;;;14.80;6.88;;;1.70;96.00;;;;;;4950466;28;20063;-66
2024/02/28 07:11:51;;;;;;;15.13;6.70;;;1.80;96.00;;;;;;4951980;28;20065;-67
2024/02/28 07:14:16;;;;;;;12.70;5.70;;;1.90;95.90;;;;;;4953667;28;20468;-66
2024/02/28 07:16:42;;;;;;;13.95;6.78;;;1.90;95.80;;;;;;4947990;28;20053;-67
2024/02/28 07:19:07;;;;;;;14.23;7.57;;;2.00;95.70;;;;;;4959404;28;20062;-67
2024/02/28 07:21:33;;;;;;;13.82;6.93;;;2.10;95.60;;;;;;4953538;28;20121;-67
2024/02/28 07:23:58;;;;;;;11.93;6.38;;;2.10;95.60;;;;;;4958968;28;20563;-67
2024/02/28 07:26:24;;;;;;;15.07;7.10;;;2.10;95.40;;;;;;4955603;28;20035;-68
2024/02/28 07:28:49;;;;;;;19.35;7.82;;;2.10;95.40;;;;;;4954337;28;20388;-67
2024/02/28 07:31:16;;;;;;;15.05;7.00;;;2.00;95.40;;;;;;4953234;28;20023;-66
2024/02/28 07:33:41;;;;;;;15.60;7.65;;;2.10;95.40;;;;;;4956150;28;20412;-67
2024/02/28 07:36:07;;;;;;;15.18;7.00;;;2.10;95.50;;;;;;4954474;28;20104;-66
2024/02/28 07:38:32;;;;;;;16.27;6.45;;;2.20;95.30;;;;;;4952331;28;20444;-67
2024/02/28 07:40:58;;;;;;;14.70;7.65;;;2.20;95.20;;;;;;4951245;28;20034;-67
2024/02/28 07:43:23;;;;;;;14.15;7.00;;;2.30;95.10;;;;;;4952109;28;20145;-67
2024/02/28 07:45:49;;;;;;;18.48;8.85;;;2.30;95.00;;;;;;4952048;28;20035;-66
2024/02/28 07:48:17;;;;;;;17.33;8.65;;;2.30;94.90;;;;;;4951032;28;20042;-65
2024/02/28 07:50:45;;;;;;;14.63;7.88;;;2.30;94.70;;;;;;4951885;28;20027;-65
2024/02/28 07:53:12;;;;;;;16.52;8.02;;;2.30;94.80;;;;;;4946392;28;20024;-64
2024/02/28 07:55:38;;;;;;;18.00;8.85;;;2.40;94.70;;;;;;4947788;28;20081;-65
2024/02/28 07:58:05;;;;;;;17.27;8.45;;;2.40;94.80;;;;;;4948071;28;20030;-65
2024/02/28 08:00:33;;;;;;;16.48;8.10;;;2.50;94.80;;;;;;4954656;28;20471;-65
2024/02/28 08:02:58;;;;;;;19.30;8.77;;;2.60;94.50;;;;;;4948349;28;20035;-65
2024/02/28 08:05:23;;;;;;;16.50;7.53;;;2.60;94.70;;;;;;4948600;28;20096;-64
2024/02/28 08:07:49;;;;;;;19.15;8.05;;;2.60;94.40;;;;;;4948263;28;20074;-62
2024/02/28 08:10:15;;;;;;;15.32;7.25;;;2.70;94.40;;;;;;4950828;28;20038;-62
2024/02/28 08:12:40;;;;;;;16.75;7.63;;;2.80;94.40;;;;;;4944451;28;20065;-63
2024/02/28 08:15:06;;;;;;;18.52;9.02;;;2.80;94.00;;;;;;5006125;28;20095;-63
2024/02/28 08:17:31;;;;;;;19.55;8.88;;;3.00;94.20;;;;;;5009642;28;20064;-62
2024/02/28 08:19:57;;;;;;;16.80;8.70;;;3.10;94.20;;;;;;5012012;28;20026;-64
2024/02/28 08:22:24;;;;;;;13.65;7.10;;;3.20;93.50;;;;;;5012806;28;20052;-63
2024/02/28 08:24:51;;;;;;;18.85;9.02;;;3.30;93.70;;;;;;5010091;28;20037;-64
2024/02/28 08:27:17;;;;;;;18.85;8.88;;;3.20;92.80;;;;;;5008080;28;20033;-62
2024/02/28 08:29:45;;;;;;;17.55;8.55;;;3.30;93.20;;;;;;5004252;28;20040;-64
2024/02/28 08:32:11;;;;;;;21.70;9.48;;;3.50;92.90;;;;;;5008102;28;20117;-62
2024/02/28 08:34:36;;;;;;;17.83;9.18;;;3.50;92.40;;;;;;5014057;28;20021;-61
2024/02/28 08:37:02;;;;;;;23.20;10.65;;;3.30;92.30;;;;;;5009070;28;20057;-62
2024/02/28 08:39:28;;;;;;;19.17;9.07;;;3.50;92.90;;;;;;5014822;28;20041;-65
2024/02/28 08:41:53;;;;;;;16.13;8.82;;;3.70;92.40;;;;;;5016641;28;20511;-62
2024/02/28 08:44:19;;;;;;;17.15;8.70;;;3.70;92.70;;;;;;5019091;28;20045;-63
2024/02/28 08:46:46;;;;;;;17.77;8.98;;;3.80;92.10;;;;;;5013050;28;20049;-63
2024/02/28 08:49:13;;;;;;;17.65;8.35;;;3.90;92.40;;;;;;5014821;28;20045;-64
2024/02/28 08:51:40;;;;;;;17.13;7.78;;;4.30;92.60;;;;;;5013902;28;20385;-62
2024/02/28 08:54:05;;;;;;;20.38;8.82;;;4.30;91.00;;;;;;5018690;28;20108;-64
2024/02/28 08:56:31;;;;;;;15.55;7.43;;;4.00;90.70;;;;;;5018628;28;20026;-63
2024/02/28 08:58:56;;;;;;;19.65;8.43;;;4.40;91.90;;;;;;5009052;28;20441;-63
2024/02/28 09:01:22;;;;;;;16.38;8.60;;;4.40;91.20;;;;;;5017735;28;20029;-64
2024/02/28 09:03:47;;;;;;;17.75;8.38;;;4.70;90.50;;;;;;5018580;28;20092;-63
2024/02/28 09:06:13;;;;;;;16.98;8.77;;;4.40;89.70;;;;;;5015969;28;20128;-64
2024/02/28 09:08:38;;;;;;;18.38;8.98;;;4.60;91.00;;;;;;5016417;28;20117;-64
2024/02/28 09:11:05;;;;;;;16.45;8.55;;;4.90;90.00;;;;;;5017726;28;20040;-63
2024/02/28 09:13:30;;;;;;;17.70;8.85;;;5.10;88.80;;;;;;5011483;28;20120;-63
2024/02/28 09:15:56;;;;;;;16.42;8.85;;;5.70;89.20;;;;;;5013841;28;20664;-63
2024/02/28 09:18:22;;;;;;;15.13;8.00;;;5.50;87.40;;;;;;5014281;28;20045;-63
2024/02/28 09:20:47;;;;;;;15.10;8.50;;;5.50;87.80;;;;;;5021124;28;20048;-63
2024/02/28 09:23:14;;;;;;;16.05;7.45;;;5.50;88.00;;;;;;5020954;28;20033;-62
2024/02/28 09:25:40;;;;;;;16.83;8.18;;;5.50;87.30;;;;;;5011848;28;20096;-63
2024/02/28 09:28:05;;;;;;;18.80;9.20;;;5.20;87.70;;;;;;5021513;28;20049;-62
2024/02/28 09:30:31;;;;;;;17.30;8.52;;;5.30;87.70;;;;;;5011565;28;20025;-63
2024/02/28 09:32:57;;;;;;;15.40;8.23;;;5.10;88.10;;;;;;5019023;28;20496;-62
2024/02/28 09:35:22;;;;;;;16.20;7.97;;;5.40;89.20;;;;;;5016493;28;20125;-62
2024/02/28 09:37:48;;;;;;;17.75;8.63;;;6.30;88.70;;;;;;5015265;28;20479;-64
2024/02/28 09:40:13;;;;;;;16.08;8.18;;;6.20;85.40;;;;;;5014116;28;20044;-62
2024/02/28 09:42:39;;;;;;;16.35;7.88;;;5.90;86.30;;;;;;5018501;28;20057;-63
2024/02/28 09:45:08;;;;;;;14.02;7.35;;;5.70;86.90;;;;;;5019202;28;20186;-66
2024/02/28 09:47:33;;;;;;;15.52;7.75;;;5.90;86.80;;;;;;5017484;28;20397;-64
2024/02/28 09:50:01;;;;;;;14.07;7.22;;;6.00;86.30;;;;;;5015430;28;20045;-63
2024/02/28 09:52:27;;;;;;;15.15;7.38;;;5.80;86.70;;;;;;5013269;28;20312;-63
2024/02/28 09:54:53;;;;;;;14.70;7.03;;;5.80;86.30;;;;;;5011061;28;20108;-62
2024/02/28 09:57:19;;;;;;;15.00;7.32;;;5.80;86.50;;;;;;5011234;28;20037;-62
2024/02/28 09:59:45;;;;;;;15.27;7.97;;;6.10;87.00;;;;;;5011943;28;20038;-63
2024/02/28 10:02:11;;;;;;;17.40;7.78;;;6.00;86.50;;;;;;5019022;28;20060;-62
2024/02/28 10:04:37;;;;;;;16.08;8.10;;;6.20;87.00;;;;;;5011599;28;20533;-63
2024/02/28 10:07:13;;;;;;;16.83;8.30;;;6.40;86.40;;;;;;5015198;28;20026;-63
2024/02/28 10:09:39;;;;;;;17.05;8.25;;;6.40;86.10;;;;;;5013470;28;20451;-62
2024/02/28 10:12:05;;;;;;;15.85;7.90;;;6.30;85.70;;;;;;5013793;28;20045;-62
2024/02/28 10:14:30;;;;;;;15.05;7.47;;;6.00;86.00;;;;;;5012131;28;20056;-62
2024/02/28 10:16:56;;;;;;;15.55;7.32;;;6.10;86.90;;;;;;5013738;28;20070;-63
2024/02/28 10:19:21;;;;;;;15.10;7.40;;;5.90;86.30;;;;;;5022832;28;20466;-62
2024/02/28 10:21:47;;;;;;;16.20;7.80;;;5.90;85.90;;;;;;5011018;28;20355;-62
2024/02/28 10:24:13;;;;;;;14.07;6.88;;;6.00;86.30;;;;;;5021962;28;20513;-62
2024/02/28 10:26:43;;;;;;;15.25;7.75;;;6.10;86.10;;;;;;5018090;28;20050;-62
2024/02/28 10:29:09;;;;;;;14.60;7.73;;;6.30;86.10;;;;;;5012366;28;20030;-62
2024/02/28 10:31:35;;;;;;;13.45;6.65;;;6.50;86.20;;;;;;5016932;28;20359;-63
2024/02/28 10:34:02;;;;;;;12.43;5.95;;;6.80;85.40;;;;;;5020371;28;20587;-62
2024/02/28 10:36:31;;;;;;;13.77;7.00;;;6.50;85.10;;;;;;5025381;28;20045;-63
2024/02/28 10:38:57;;;;;;;15.13;6.72;;;6.80;85.30;;;;;;5013739;28;20469;-62
2024/02/28 10:41:26;;;;;;;14.02;6.60;;;7.00;83.50;;;;;;5012202;28;20049;-63
2024/02/28 10:43:53;;;;;;;14.88;7.68;;;7.10;84.00;;;;;;5009950;28;20488;-62
2024/02/28 10:46:20;;;;;;;12.98;6.80;;;7.70;82.80;;;;;;5010268;28;20225;-63
2024/02/28 10:48:48;;;;;;;13.40;6.47;;;8.30;81.80;;;;;;5008190;28;20032;-62
2024/02/28 10:51:20;;;;;;;11.23;5.82;;;8.10;80.50;;;;;;5007576;28;20480;-64
2024/02/28 10:53:47;;;;;;;13.02;6.55;;;8.00;81.20;;;;;;5015299;28;20037;-62
2024/02/28 10:56:16;;;;;;;11.60;5.97;;;8.10;81.20;;;;;;5018933;28;20443;-63
2024/02/28 10:58:52;;;;;;;14.50;6.07;;;8.30;80.30;;;;;;5021582;28;20036;-65
2024/02/28 11:01:18;;;;;;;10.75;5.50;;;8.60;79.20;;;;;;5017016;28;20450;-62
2024/02/28 11:03:44;;;;;;;11.73;5.88;;;8.60;79.30;;;;;;5018033;28;20064;-62
2024/02/28 11:06:21;;;;;;;10.73;6.00;;;8.20;79.50;;;;;;5013889;28;20048;-62
2024/02/28 11:08:48;;;;;;;11.27;5.53;;;8.10;80.30;;;;;;5015721;28;20072;-63
2024/02/28 11:11:16;;;;;;;11.18;5.82;;;8.00;79.40;;;;;;5012080;28;20120;-64
2024/02/28 11:13:54;;;;;;;10.95;5.75;;;7.60;80.20;;;;;;5024636;28;20522;-63
2024/02/28 11:16:33;;;;;;;9.75;5.30;;;7.60;81.70;;;;;;5014159;28;20022;-64
2024/02/28 11:18:59;;;;;;;12.75;5.45;;;7.50;82.20;;;;;;5015754;28;20093;-65
2024/02/28 11:21:26;;;;;;;14.52;6.05;;;7.60;81.60;;;;;;5015368;28;20056;-64
2024/02/28 11:23:52;;;;;;;12.63;6.25;;;7.60;82.30;;;;;;5015656;28;20038;-64
2024/02/28 11:26:18;;;;;;;11.35;5.78;;;7.40;82.00;;;;;;5012352;28;20037;-65
2024/02/28 11:28:44;;;;;;;10.90;5.85;;;7.40;82.60;;;;;;5012850;28;20048;-63
2024/02/28 11:31:09;;;;;;;10.57;5.65;;;7.20;83.10;;;;;;5011266;28;20390;-65
2024/02/28 11:33:38;;;;;;;12.55;6.25;;;7.20;82.90;;;;;;5016431;28;20033;-64
2024/02/28 11:36:04;;;;;;;11.35;5.63;;;7.30;82.90;;;;;;5016030;28;20086;-65
2024/02/28 11:38:29;;;;;;;11.77;6.07;;;7.10;82.70;;;;;;5011343;28;20101;-64
2024/02/28 11:40:55;;;;;;;10.82;6.50;;;7.20;83.30;;;;;;5007545;28;20145;-64
2024/02/28 11:43:21;;;;;;;11.90;6.07;;;7.20;84.10;;;;;;5016752;28;20049;-64
2024/02/28 11:45:47;;;;;;;11.15;5.60;;;7.30;83.40;;;;;;5017485;28;20025;-64
2024/02/28 11:48:13;;;;;;;10.70;5.25;;;7.10;83.50;;;;;;5017920;28;20421;-64
2024/02/28 11:50:39;;;;;;;10.05;4.90;;;7.40;83.80;;;;;;5010487;28;20062;-64
2024/02/28 11:53:08;;;;;;;10.60;5.40;;;7.20;83.20;;;;;;5014186;28;20437;-64
2024/02/28 11:55:34;;;;;;;14.52;6.63;;;7.30;83.70;;;;;;5018382;28;20185;-64
2024/02/28 11:58:00;;;;;;;10.98;5.97;;;7.30;83.20;;;;;;5012391;28;20060;-64
2024/02/28 12:00:25;;;;;;;11.55;5.35;;;7.00;83.50;;;;;;5039137;28;20450;-64
2024/02/28 12:02:51;;;;;;;12.05;5.50;;;7.00;84.50;;;;;;5020445;28;20426;-64
2024/02/28 12:05:19;;;;;;;12.05;6.00;;;6.90;83.30;;;;;;5015156;28;20053;-63
2024/02/28 12:07:45;;;;;;;9.95;5.35;;;6.80;84.50;;;;;;5024578;28;20108;-64
2024/02/28 12:10:11;;;;;;;11.05;5.75;;;6.90;84.30;;;;;;5011587;28;20111;-64
2024/02/28 12:12:38;;;;;;;9.43;4.80;;;7.00;83.80;;;;;;5019192;28;20063;-65
2024/02/28 12:15:05;;;;;;;11.75;5.88;;;7.20;83.50;;;;;;5015338;28;20583;-64
2024/02/28 12:17:31;;;;;;;10.20;5.13;;;7.00;83.60;;;;;;5010001;28;20366;-64
2024/02/28 12:19:59;;;;;;;10.95;5.55;;;7.40;84.00;;;;;;5014516;28;20119;-64
2024/02/28 12:22:24;;;;;;;10.70;5.43;;;7.60;83.10;;;;;;5008724;28;20385;-63
2024/02/28 12:24:50;;;;;;;12.57;5.47;;;7.60;83.80;;;;;;5015745;28;20046;-64
2024/02/28 12:27:15;;;;;;;12.52;6.15;;;7.10;83.40;;;;;;5012656;28;20087;-65
2024/02/28 12:29:41;;;;;;;11.70;6.03;;;7.10;84.10;;;;;;5011003;28;20064;-64
2024/02/28 12:32:07;;;;;;;10.63;5.30;;;7.10;83.80;;;;;;5014454;28;20777;-64
2024/02/28 12:34:33;;;;;;;11.02;5.22;;;7.30;84.30;;;;;;5029263;28;20085;-64
2024/02/28 12:36:59;;;;;;;9.13;4.10;;;7.50;84.30;;;;;;5015561;28;20061;-64
2024/02/28 12:39:25;;;;;;;8.57;4.72;;;7.20;83.90;;;;;;5013276;28;20469;-64
2024/02/28 12:41:50;;;;;;;8.75;4.22;;;7.10;84.70;;;;;;5010870;28;20065;-64
2024/02/28 12:44:16;;;;;;;8.63;4.45;;;7.10;85.10;;;;;;5009234;28;20100;-63
2024/02/28 12:46:41;;;;;;;10.88;5.13;;;6.90;85.30;;;;;;5009643;28;20423;-64
2024/02/28 12:49:07;;;;;;;10.98;5.07;;;6.80;85.80;;;;;;5008257;28;20332;-65
2024/02/28 12:51:41;;;;;;;9.98;5.15;;;6.70;86.30;;;;;;5006508;28;20037;-63
2024/02/28 12:54:10;;;;;;;12.10;4.75;;;6.90;86.40;;;;;;5011581;28;20224;-64
2024/02/28 12:56:39;;;;;;;11.30;5.35;;;7.00;86.60;;;;;;5012874;28;20034;-63
2024/02/28 12:59:05;;;;;;;10.63;4.95;;;6.60;86.20;;;;;;5011985;28;20261;-63
2024/02/28 13:01:31;;;;;;;9.32;5.30;;;6.60;86.30;;;;;;5013657;28;20069;-63
2024/02/28 13:03:57;;;;;;;10.50;5.68;;;6.50;86.50;;;;;;5014919;28;20561;-64
2024/02/28 13:06:22;;;;;;;11.00;5.82;;;6.60;86.80;;;;;;5007872;28;20466;-63
2024/02/28 13:08:51;;;;;;;11.55;5.38;;;6.90;86.30;;;;;;5016608;28;20033;-64
2024/02/28 13:11:22;;;;;;;8.98;4.35;;;7.10;85.70;;;;;;5007591;28;20057;-65
2024/02/28 13:13:49;;;;;;;;;;;7.30;85.80;;;;;;5011560;28;20034;-64
2024/02/28 13:16:15;;;;;;;8.20;3.83;;;7.10;85.50;;;;;;5013982;28;19909;-66
2024/02/28 13:18:40;;;;;;;9.00;4.35;;;7.10;85.50;;;;;;5014175;28;20065;-63
2024/02/28 13:21:06;;;;;;;9.02;4.90;;;7.00;85.40;;;;;;5006943;28;20061;-64
2024/02/28 13:23:32;;;;;;;8.32;4.25;;;6.70;86.70;;;;;;5013032;28;20034;-64
2024/02/28 13:25:57;;;;;;;9.50;4.57;;;6.40;87.10;;;;;;5009685;28;20056;-64
2024/02/28 13:28:29;;;;;;;8.10;4.10;;;6.30;87.80;;;;;;5010275;28;20367;-64
2024/02/28 13:31:01;;;;;;;7.88;4.07;;;6.20;88.20;;;;;;5018647;28;20734;-63
2024/02/28 13:33:27;;;;;;;8.13;3.88;;;6.20;88.80;;;;;;5018471;28;20034;-63
2024/02/28 13:35:53;;;;;;;7.70;3.83;;;6.10;89.20;;;;;;5015476;28;20377;-63
2024/02/28 13:38:20;;;;;;;9.55;4.18;;;5.90;89.90;;;;;;5015393;28;20038;-63
2024/02/28 13:40:49;;;;;;;8.40;3.40;;;5.70;90.10;;;;;;5022785;28;20060;-63
2024/02/28 13:43:15;;;;;;;10.63;4.00;;;5.80;90.40;;;;;;5021706;28;20052;-62
2024/02/28 13:45:46;;;;;;;7.80;3.83;;;5.80;90.50;;;;;;5017300;28;20108;-63
2024/02/28 13:48:17;;;;;;;;;;;6.10;90.10;;;;;;5015931;28;20052;-63
2024/02/28 13:50:43;;;;;;;8.95;3.67;;;6.20;89.80;;;;;;5020358;28;20011;-64
2024/02/28 13:53:08;;;;;;;11.68;4.18;;;6.10;89.70;;;;;;5017301;28;20042;-63
2024/02/28 13:55:34;;;;;;;11.45;4.78;;;6.20;89.90;;;;;;5016451;28;20052;-64
2024/02/28 13:57:59;;;;;;;8.80;4.05;;;6.20;89.90;;;;;;5016927;28;20052;-63
2024/02/28 14:00:25;;;;;;;9.52;4.20;;;6.20;89.80;;;;;;5019029;28;20033;-64
2024/02/28 14:02:50;;;;;;;9.73;4.65;;;6.10;90.10;;;;;;5018848;28;20044;-63
2024/02/28 14:05:16;;;;;;;10.98;5.05;;;5.70;90.70;;;;;;5018831;28;20053;-63
2024/02/28 14:07:41;;;;;;;12.60;5.10;;;5.70;91.60;;;;;;5017475;28;20436;-62
2024/02/28 14:10:07;;;;;;;10.77;4.50;;;5.80;91.50;;;;;;5013090;28;20069;-63
2024/02/28 14:12:32;;;;;;;12.85;6.03;;;5.80;91.60;;;;;;5016172;28;20354;-63
2024/02/28 14:14:58;;;;;;;11.07;5.43;;;5.80;91.60;;;;;;5011465;28;20021;-63
2024/02/28 14:17:23;;;;;;;10.85;5.70;;;5.80;91.60;;;;;;5015067;28;20021;-66
2024/02/28 14:19:49;;;;;;;12.93;5.60;;;5.70;91.90;;;;;;5016840;28;20570;-63
2024/02/28 14:22:15;;;;;;;12.50;6.40;;;5.70;91.90;;;;;;5016432;28;20029;-64
2024/02/28 14:24:40;;;;;;;12.35;6.38;;;5.50;92.10;;;;;;5020406;28;20516;-62